sensor_id;sensor_type;location;lat;lon;timestamp;pressure;altitude;pressure_sealevel;temperature;humidity
20077;BME280;12348;42.710;23.378;2023-04-05T00:01:19;94660.53;;;-0.04;100.00
20077;BME280;12348;42.710;23.378;2023-04-05T00:03:45;94655.81;;;-0.02;100.00
20077;BME280;12348;42.710;23.378;2023-04-05T00:06:12;94648.34;;;-0.05;100.00
20077;BME280;12348;42.710;23.378;2023-04-05T00:08:41;94646.03;;;-0.02;100.00
20077;BME280;12348;42.710;23.378;2023-04-05T00:11:08;94649.31;;;0.17;100.00
20077;BME280;12348;42.710;23.378;2023-04-05T00:13:35;94650.34;;;0.16;100.00
20077;BME280;12348;42.710;23.378;2023-04-05T00:16:04;94640.47;;;0.12;100.00
20077;BME280;12348;42.710;23.378;2023-04-05T00:18:32;94650.72;;;0.08;100.00
20077;BME280;12348;42.710;23.378;2023-04-05T00:20:59;94645.91;;;0.05;100.00
20077;BME280;12348;42.710;23.378;2023-04-05T00:23:26;94650.06;;;0.01;100.00
20077;BME280;12348;42.710;23.378;2023-04-05T00:25:53;94641.88;;;0.03;100.00
20077;BME280;12348;42.710;23.378;2023-04-05T00:28:20;94650.63;;;0.03;100.00
20077;BME280;12348;42.710;23.378;2023-04-05T00:30:47;94647.41;;;0.01;100.00
20077;BME280;12348;42.710;23.378;2023-04-05T00:33:15;94643.38;;;-0.02;100.00
20077;BME280;12348;42.710;23.378;2023-04-05T00:35:41;94645.25;;;-0.02;100.00
20077;BME280;12348;42.710;23.378;2023-04-05T00:38:08;94655.06;;;0.14;100.00
20077;BME280;12348;42.710;23.378;2023-04-05T00:40:35;94653.31;;;0.20;100.00
20077;BME280;12348;42.710;23.378;2023-04-05T00:43:02;94649.56;;;0.16;100.00
20077;BME280;12348;42.710;23.378;2023-04-05T00:45:29;94661.75;;;0.17;100.00
20077;BME280;12348;42.710;23.378;2023-04-05T00:47:56;94661.66;;;0.12;100.00
20077;BME280;12348;42.710;23.378;2023-04-05T00:50:24;94653.94;;;0.10;100.00
20077;BME280;12348;42.710;23.378;2023-04-05T00:52:55;94663.38;;;0.06;100.00
20077;BME280;12348;42.710;23.378;2023-04-05T00:55:22;94652.47;;;0.03;100.00
20077;BME280;12348;42.710;23.378;2023-04-05T00:57:51;94652.25;;;0.04;100.00
20077;BME280;12348;42.710;23.378;2023-04-05T01:00:20;94654.78;;;-0.01;100.00
20077;BME280;12348;42.710;23.378;2023-04-05T01:02:50;94662.50;;;0.01;100.00
20077;BME280;12348;42.710;23.378;2023-04-05T01:05:28;94664.81;;;-0.03;100.00
20077;BME280;12348;42.710;23.378;2023-04-05T01:08:03;94657.75;;;0.03;100.00
20077;BME280;12348;42.710;23.378;2023-04-05T01:10:36;94658.75;;;0.13;100.00
20077;BME280;12348;42.710;23.378;2023-04-05T01:13:04;94656.09;;;0.13;100.00
20077;BME280;12348;42.710;23.378;2023-04-05T01:15:31;94666.22;;;0.16;100.00
20077;BME280;12348;42.710;23.378;2023-04-05T01:17:58;94671.59;;;0.21;100.00
20077;BME280;12348;42.710;23.378;2023-04-05T01:20:31;94661.50;;;0.18;100.00
20077;BME280;12348;42.710;23.378;2023-04-05T01:26:43;94669.59;;;0.12;100.00
20077;BME280;12348;42.710;23.378;2023-04-05T01:29:34;94674.56;;;0.08;100.00
20077;BME280;12348;42.710;23.378;2023-04-05T01:32:10;94678.78;;;0.09;100.00
20077;BME280;12348;42.710;23.378;2023-04-05T01:34:47;94664.44;;;0.05;100.00
20077;BME280;12348;42.710;23.378;2023-04-05T01:37:19;94667.00;;;0.00;100.00
20077;BME280;12348;42.710;23.378;2023-04-05T01:39:48;94674.63;;;0.13;100.00
20077;BME280;12348;42.710;23.378;2023-04-05T01:42:16;94661.97;;;0.15;100.00
20077;BME280;12348;42.710;23.378;2023-04-05T01:44:49;94680.03;;;0.18;100.00
20077;BME280;12348;42.710;23.378;2023-04-05T01:47:16;94685.81;;;0.15;100.00
20077;BME280;12348;42.710;23.378;2023-04-05T01:49:43;94677.16;;;0.20;100.00
20077;BME280;12348;42.710;23.378;2023-04-05T01:52:09;94670.72;;;0.16;100.00
20077;BME280;12348;42.710;23.378;2023-04-05T01:54:36;94681.53;;;0.14;100.00
20077;BME280;12348;42.710;23.378;2023-04-05T01:57:03;94680.19;;;0.12;100.00
20077;BME280;12348;42.710;23.378;2023-04-05T01:59:30;94665.81;;;0.08;100.00
20077;BME280;12348;42.710;23.378;2023-04-05T02:01:58;94685.69;;;0.10;100.00
20077;BME280;12348;42.710;23.378;2023-04-05T02:04:25;94678.78;;;0.09;100.00
20077;BME280;12348;42.710;23.378;2023-04-05T02:06:52;94674.03;;;0.23;100.00
20077;BME280;12348;42.710;23.378;2023-04-05T02:09:19;94679.41;;;0.28;100.00
20077;BME280;12348;42.710;23.378;2023-04-05T02:11:45;94680.69;;;0.26;100.00
20077;BME280;12348;42.710;23.378;2023-04-05T02:14:12;94674.25;;;0.21;100.00
20077;BME280;12348;42.710;23.378;2023-04-05T02:16:39;94683.16;;;0.15;100.00
20077;BME280;12348;42.710;23.378;2023-04-05T02:19:07;94688.22;;;0.17;100.00
20077;BME280;12348;42.710;23.378;2023-04-05T02:21:34;94685.09;;;0.20;100.00
20077;BME280;12348;42.710;23.378;2023-04-05T02:24:01;94670.72;;;0.16;100.00
20077;BME280;12348;42.710;23.378;2023-04-05T02:26:28;94690.84;;;0.17;100.00
20077;BME280;12348;42.710;23.378;2023-04-05T02:28:55;94680.03;;;0.18;100.00
20077;BME280;12348;42.710;23.378;2023-04-05T02:31:21;94686.34;;;0.17;100.00
20077;BME280;12348;42.710;23.378;2023-04-05T02:33:48;94676.03;;;0.16;100.00
20077;BME280;12348;42.710;23.378;2023-04-05T02:36:16;94679.00;;;0.19;100.00
20077;BME280;12348;42.710;23.378;2023-04-05T02:38:43;94686.69;;;0.21;100.00
20077;BME280;12348;42.710;23.378;2023-04-05T02:41:10;94675.38;;;0.26;100.00
20077;BME280;12348;42.710;23.378;2023-04-05T02:43:37;94673.31;;;0.28;100.00
20077;BME280;12348;42.710;23.378;2023-04-05T02:46:04;94667.44;;;0.26;100.00
20077;BME280;12348;42.710;23.378;2023-04-05T02:48:31;94674.50;;;0.20;100.00
20077;BME280;12348;42.710;23.378;2023-04-05T02:50:58;94669.69;;;0.17;100.00
20077;BME280;12348;42.710;23.378;2023-04-05T02:53:26;94681.88;;;0.18;100.00
20077;BME280;12348;42.710;23.378;2023-04-05T02:55:53;94673.78;;;0.24;100.00
20077;BME280;12348;42.710;23.378;2023-04-05T02:58:21;94662.78;;;0.16;100.00
20077;BME280;12348;42.710;23.378;2023-04-05T03:00:49;94673.59;;;0.14;100.00
20077;BME280;12348;42.710;23.378;2023-04-05T03:03:17;94675.44;;;0.14;100.00
20077;BME280;12348;42.710;23.378;2023-04-05T03:05:45;94673.72;;;0.19;100.00
20077;BME280;12348;42.710;23.378;2023-04-05T03:08:13;94666.78;;;0.18;100.00
20077;BME280;12348;42.710;23.378;2023-04-05T03:10:45;94671.28;;;0.18;100.00
20077;BME280;12348;42.710;23.378;2023-04-05T03:13:12;94680.03;;;0.18;100.00
20077;BME280;12348;42.710;23.378;2023-04-05T03:15:39;94675.78;;;0.17;100.00
20077;BME280;12348;42.710;23.378;2023-04-05T03:18:06;94684.75;;;0.16;100.00
20077;BME280;12348;42.710;23.378;2023-04-05T03:20:34;94668.97;;;0.21;100.00
20077;BME280;12348;42.710;23.378;2023-04-05T03:23:05;94682.19;;;0.21;100.00
20077;BME280;12348;42.710;23.378;2023-04-05T03:25:33;94684.28;;;0.19;100.00
20077;BME280;12348;42.710;23.378;2023-04-05T03:28:02;94679.34;;;0.23;100.00
20077;BME280;12348;42.710;23.378;2023-04-05T03:30:30;94679.56;;;0.21;100.00
20077;BME280;12348;42.710;23.378;2023-04-05T03:32:57;94680.34;;;0.22;100.00
20077;BME280;12348;42.710;23.378;2023-04-05T03:35:26;94683.44;;;0.31;100.00
20077;BME280;12348;42.710;23.378;2023-04-05T03:37:53;94664.66;;;0.32;100.00
20077;BME280;12348;42.710;23.378;2023-04-05T03:40:19;94677.69;;;0.34;100.00
20077;BME280;12348;42.710;23.378;2023-04-05T03:42:46;94685.28;;;0.30;100.00
20077;BME280;12348;42.710;23.378;2023-04-05T03:45:14;94685.63;;;0.34;100.00
20077;BME280;12348;42.710;23.378;2023-04-05T03:47:41;94689.28;;;0.33;100.00
20077;BME280;12348;42.710;23.378;2023-04-05T03:50:09;94677.56;;;0.29;100.00
20077;BME280;12348;42.710;23.378;2023-04-05T03:52:35;94688.16;;;0.29;100.00
20077;BME280;12348;42.710;23.378;2023-04-05T03:55:03;94683.13;;;0.27;100.00
20077;BME280;12348;42.710;23.378;2023-04-05T03:57:30;94697.63;;;0.24;100.00
20077;BME280;12348;42.710;23.378;2023-04-05T03:59:56;94702.25;;;0.17;100.00
20077;BME280;12348;42.710;23.378;2023-04-05T04:02:24;94702.56;;;0.21;100.00
20077;BME280;12348;42.710;23.378;2023-04-05T04:04:51;94702.91;;;0.24;100.00
20077;BME280;12348;42.710;23.378;2023-04-05T04:07:18;94707.22;;;0.42;100.00
20077;BME280;12348;42.710;23.378;2023-04-05T04:09:45;94708.41;;;0.35;100.00
20077;BME280;12348;42.710;23.378;2023-04-05T04:12:11;94708.88;;;0.32;100.00
20077;BME280;12348;42.710;23.378;2023-04-05T04:14:38;94707.53;;;0.17;100.00
20077;BME280;12348;42.710;23.378;2023-04-05T04:17:05;94706.88;;;0.10;100.00
20077;BME280;12348;42.710;23.378;2023-04-05T04:19:33;94700.69;;;0.05;100.00
20077;BME280;12348;42.710;23.378;2023-04-05T04:22:00;94707.81;;;0.04;100.00
20077;BME280;12348;42.710;23.378;2023-04-05T04:24:27;94719.75;;;0.07;100.00
20077;BME280;12348;42.710;23.378;2023-04-05T04:26:56;94712.06;;;0.05;100.00
20077;BME280;12348;42.710;23.378;2023-04-05T04:29:23;94715.59;;;0.11;100.00
20077;BME280;12348;42.710;23.378;2023-04-05T04:31:55;94711.78;;;0.18;100.00
20077;BME280;12348;42.710;23.378;2023-04-05T04:34:22;94713.13;;;0.33;100.00
20077;BME280;12348;42.710;23.378;2023-04-05T04:36:51;94707.59;;;0.34;100.00
20077;BME280;12348;42.710;23.378;2023-04-05T04:39:25;94709.34;;;0.29;100.00
20077;BME280;12348;42.710;23.378;2023-04-05T04:41:52;94707.75;;;0.28;100.00
20077;BME280;12348;42.710;23.378;2023-04-05T04:44:20;94713.69;;;0.35;100.00
20077;BME280;12348;42.710;23.378;2023-04-05T04:46:52;94714.59;;;0.40;100.00
20077;BME280;12348;42.710;23.378;2023-04-05T04:49:19;94713.19;;;0.50;100.00
20077;BME280;12348;42.710;23.378;2023-04-05T04:51:46;94710.75;;;0.48;100.00
20077;BME280;12348;42.710;23.378;2023-04-05T04:54:14;94703.53;;;0.43;100.00
20077;BME280;12348;42.710;23.378;2023-04-05T04:56:45;94715.03;;;0.49;100.00
20077;BME280;12348;42.710;23.378;2023-04-05T04:59:12;94709.75;;;0.49;100.00
20077;BME280;12348;42.710;23.378;2023-04-05T05:01:39;94706.38;;;0.54;100.00
20077;BME280;12348;42.710;23.378;2023-04-05T05:04:06;94723.25;;;0.64;100.00
20077;BME280;12348;42.710;23.378;2023-04-05T05:06:32;94719.63;;;0.70;100.00
20077;BME280;12348;42.710;23.378;2023-04-05T05:08:59;94704.97;;;0.80;100.00
20077;BME280;12348;42.710;23.378;2023-04-05T05:11:28;94718.84;;;0.70;100.00
20077;BME280;12348;42.710;23.378;2023-04-05T05:13:55;94713.53;;;0.70;100.00
20077;BME280;12348;42.710;23.378;2023-04-05T05:16:21;94720.78;;;0.75;100.00
20077;BME280;12348;42.710;23.378;2023-04-05T05:18:49;94719.75;;;0.76;100.00
20077;BME280;12348;42.710;23.378;2023-04-05T05:21:16;94729.38;;;0.82;100.00
20077;BME280;12348;42.710;23.378;2023-04-05T05:23:43;94731.38;;;0.75;100.00
20077;BME280;12348;42.710;23.378;2023-04-05T05:26:11;94726.06;;;0.75;100.00
20077;BME280;12348;42.710;23.378;2023-04-05T05:28:40;94734.50;;;0.71;100.00
20077;BME280;12348;42.710;23.378;2023-04-05T05:31:07;94725.66;;;0.66;100.00
20077;BME280;12348;42.710;23.378;2023-04-05T05:33:34;94730.56;;;0.74;100.00
20077;BME280;12348;42.710;23.378;2023-04-05T05:36:00;94734.22;;;0.85;100.00
20077;BME280;12348;42.710;23.378;2023-04-05T05:38:28;94734.66;;;1.10;100.00
20077;BME280;12348;42.710;23.378;2023-04-05T05:40:55;94726.22;;;1.13;100.00
20077;BME280;12348;42.710;23.378;2023-04-05T05:43:23;94718.19;;;1.25;100.00
20077;BME280;12348;42.710;23.378;2023-04-05T05:45:51;94733.13;;;1.31;100.00
20077;BME280;12348;42.710;23.378;2023-04-05T05:48:18;94719.13;;;1.53;100.00
20077;BME280;12348;42.710;23.378;2023-04-05T05:50:44;94721.13;;;1.62;100.00
20077;BME280;12348;42.710;23.378;2023-04-05T05:53:13;94724.25;;;1.76;100.00
20077;BME280;12348;42.710;23.378;2023-04-05T05:55:41;94723.53;;;1.64;100.00
20077;BME280;12348;42.710;23.378;2023-04-05T05:58:08;94721.09;;;1.79;100.00
20077;BME280;12348;42.710;23.378;2023-04-05T06:00:35;94718.16;;;1.98;100.00
20077;BME280;12348;42.710;23.378;2023-04-05T06:03:04;94727.00;;;2.25;100.00
20077;BME280;12348;42.710;23.378;2023-04-05T06:05:31;94730.47;;;2.26;100.00
20077;BME280;12348;42.710;23.378;2023-04-05T06:07:59;94729.22;;;2.55;100.00
20077;BME280;12348;42.710;23.378;2023-04-05T06:10:28;94730.28;;;2.54;100.00
20077;BME280;12348;42.710;23.378;2023-04-05T06:12:55;94733.09;;;2.70;100.00
20077;BME280;12348;42.710;23.378;2023-04-05T06:15:21;94729.22;;;2.55;100.00
20077;BME280;12348;42.710;23.378;2023-04-05T06:17:48;94745.66;;;2.52;100.00
20077;BME280;12348;42.710;23.378;2023-04-05T06:20:16;94738.28;;;2.59;100.00
20077;BME280;12348;42.710;23.378;2023-04-05T06:22:43;94742.06;;;2.41;100.00
20077;BME280;12348;42.710;23.378;2023-04-05T06:25:10;94743.47;;;2.49;100.00
20077;BME280;12348;42.710;23.378;2023-04-05T06:27:37;94737.00;;;2.62;100.00
20077;BME280;12348;42.710;23.378;2023-04-05T06:30:05;94753.94;;;2.56;100.00
20077;BME280;12348;42.710;23.378;2023-04-05T06:32:32;94744.06;;;2.51;100.00
20077;BME280;12348;42.710;23.378;2023-04-05T06:34:59;94744.72;;;2.63;100.00
20077;BME280;12348;42.710;23.378;2023-04-05T06:37:29;94746.09;;;2.44;100.00
20077;BME280;12348;42.710;23.378;2023-04-05T06:39:56;94746.63;;;2.46;100.00
20077;BME280;12348;42.710;23.378;2023-04-05T06:42:23;94747.63;;;2.40;100.00
20077;BME280;12348;42.710;23.378;2023-04-05T06:44:50;94748.66;;;2.39;100.00
20077;BME280;12348;42.710;23.378;2023-04-05T06:47:17;94756.22;;;2.47;100.00
20077;BME280;12348;42.710;23.378;2023-04-05T06:49:45;94754.56;;;2.41;100.00
20077;BME280;12348;42.710;23.378;2023-04-05T06:52:11;94766.84;;;2.47;100.00
20077;BME280;12348;42.710;23.378;2023-04-05T06:54:39;94765.66;;;2.82;100.00
20077;BME280;12348;42.710;23.378;2023-04-05T06:57:06;94772.00;;;3.03;100.00
20077;BME280;12348;42.710;23.378;2023-04-05T06:59:33;94771.81;;;3.14;100.00
20077;BME280;12348;42.710;23.378;2023-04-05T07:02:00;94777.72;;;3.49;100.00
20077;BME280;12348;42.710;23.378;2023-04-05T07:04:26;94783.97;;;3.05;100.00
20077;BME280;12348;42.710;23.378;2023-04-05T07:06:59;94776.06;;;3.10;100.00
20077;BME280;12348;42.710;23.378;2023-04-05T07:09:26;94784.25;;;3.09;100.00
20077;BME280;12348;42.710;23.378;2023-04-05T07:11:56;94777.66;;;3.11;100.00
20077;BME280;12348;42.710;23.378;2023-04-05T07:14:23;94788.13;;;3.23;100.00
20077;BME280;12348;42.710;23.378;2023-04-05T07:16:50;94799.00;;;3.49;100.00
20077;BME280;12348;42.710;23.378;2023-04-05T07:19:17;94782.59;;;3.30;100.00
20077;BME280;12348;42.710;23.378;2023-04-05T07:21:44;94789.63;;;3.41;100.00
20077;BME280;12348;42.710;23.378;2023-04-05T07:24:11;94792.00;;;3.10;100.00
20077;BME280;12348;42.710;23.378;2023-04-05T07:26:38;94791.34;;;2.98;100.00
20077;BME280;12348;42.710;23.378;2023-04-05T07:29:09;94805.66;;;2.92;100.00
20077;BME280;12348;42.710;23.378;2023-04-05T07:31:37;94798.91;;;2.84;100.00
20077;BME280;12348;42.710;23.378;2023-04-05T07:34:04;94794.88;;;2.82;100.00
20077;BME280;12348;42.710;23.378;2023-04-05T07:36:31;94788.47;;;2.78;100.00
20077;BME280;12348;42.710;23.378;2023-04-05T07:38:59;94799.72;;;2.85;100.00
20077;BME280;12348;42.710;23.378;2023-04-05T07:41:28;94807.59;;;2.80;100.00
20077;BME280;12348;42.710;23.378;2023-04-05T07:43:56;94803.00;;;2.70;100.00
20077;BME280;12348;42.710;23.378;2023-04-05T07:46:24;94809.59;;;2.67;100.00
20077;BME280;12348;42.710;23.378;2023-04-05T07:48:51;94813.19;;;2.56;100.00
20077;BME280;12348;42.710;23.378;2023-04-05T07:51:18;94822.28;;;2.60;100.00
20077;BME280;12348;42.710;23.378;2023-04-05T07:53:45;94823.50;;;2.75;100.00
20077;BME280;12348;42.710;23.378;2023-04-05T07:56:13;94831.16;;;3.15;100.00
20077;BME280;12348;42.710;23.378;2023-04-05T07:58:40;94819.97;;;2.91;100.00
20077;BME280;12348;42.710;23.378;2023-04-05T08:01:08;94824.19;;;2.65;100.00
20077;BME280;12348;42.710;23.378;2023-04-05T08:03:38;94826.84;;;2.65;100.00
20077;BME280;12348;42.710;23.378;2023-04-05T08:06:08;94842.84;;;2.48;100.00
20077;BME280;12348;42.710;23.378;2023-04-05T08:08:36;94830.88;;;2.67;100.00
20077;BME280;12348;42.710;23.378;2023-04-05T08:11:03;94827.66;;;2.65;100.00
20077;BME280;12348;42.710;23.378;2023-04-05T08:13:29;94832.09;;;2.60;100.00
20077;BME280;12348;42.710;23.378;2023-04-05T08:15:58;94841.59;;;2.73;100.00
20077;BME280;12348;42.710;23.378;2023-04-05T08:18:25;94837.78;;;2.68;100.00
20077;BME280;12348;42.710;23.378;2023-04-05T08:20:54;94833.78;;;2.88;100.00
20077;BME280;12348;42.710;23.378;2023-04-05T08:23:21;94840.31;;;3.02;100.00
20077;BME280;12348;42.710;23.378;2023-04-05T08:25:48;94847.59;;;3.12;100.00
20077;BME280;12348;42.710;23.378;2023-04-05T08:28:15;94850.22;;;3.34;100.00
20077;BME280;12348;42.710;23.378;2023-04-05T08:30:41;94843.31;;;3.33;100.00
20077;BME280;12348;42.710;23.378;2023-04-05T08:33:09;94853.69;;;3.34;100.00
20077;BME280;12348;42.710;23.378;2023-04-05T08:35:36;94846.78;;;3.65;100.00
20077;BME280;12348;42.710;23.378;2023-04-05T08:38:06;94843.81;;;3.30;100.00
20077;BME280;12348;42.710;23.378;2023-04-05T08:40:39;94843.72;;;2.98;100.00
20077;BME280;12348;42.710;23.378;2023-04-05T08:43:09;94851.06;;;3.12;100.00
20077;BME280;12348;42.710;23.378;2023-04-05T08:45:43;94849.56;;;3.22;100.00
20077;BME280;12348;42.710;23.378;2023-04-05T08:48:12;94855.94;;;2.99;100.00
20077;BME280;12348;42.710;23.378;2023-04-05T08:50:39;94857.66;;;3.10;100.00
20077;BME280;12348;42.710;23.378;2023-04-05T08:53:08;94865.97;;;3.13;100.00
20077;BME280;12348;42.710;23.378;2023-04-05T08:55:36;94866.19;;;3.34;100.00
20077;BME280;12348;42.710;23.378;2023-04-05T08:58:08;94868.34;;;3.37;100.00
20077;BME280;12348;42.710;23.378;2023-04-05T09:00:37;94865.88;;;3.03;100.00
20077;BME280;12348;42.710;23.378;2023-04-05T09:03:04;94880.88;;;3.14;100.00
20077;BME280;12348;42.710;23.378;2023-04-05T09:05:32;94876.19;;;3.00;100.00
20077;BME280;12348;42.710;23.378;2023-04-05T09:08:02;94878.31;;;3.25;100.00
20077;BME280;12348;42.710;23.378;2023-04-05T09:10:30;94881.84;;;3.30;100.00
20077;BME280;12348;42.710;23.378;2023-04-05T09:12:58;94877.03;;;3.54;100.00
20077;BME280;12348;42.710;23.378;2023-04-05T09:15:28;94879.03;;;3.69;100.00
20077;BME280;12348;42.710;23.378;2023-04-05T09:17:55;94882.66;;;3.85;100.00
20077;BME280;12348;42.710;23.378;2023-04-05T09:20:22;94890.84;;;4.10;100.00
20077;BME280;12348;42.710;23.378;2023-04-05T09:22:49;94890.81;;;4.05;100.00
20077;BME280;12348;42.710;23.378;2023-04-05T09:25:32;94881.66;;;4.28;100.00
20077;BME280;12348;42.710;23.378;2023-04-05T09:28:00;94889.75;;;4.06;100.00
20077;BME280;12348;42.710;23.378;2023-04-05T09:30:27;94877.56;;;4.53;100.00
20077;BME280;12348;42.710;23.378;2023-04-05T09:32:55;94871.13;;;4.49;100.00
20077;BME280;12348;42.710;23.378;2023-04-05T09:35:23;94872.75;;;4.55;100.00
20077;BME280;12348;42.710;23.378;2023-04-05T09:37:52;94874.53;;;4.86;100.00
20077;BME280;12348;42.710;23.378;2023-04-05T09:40:19;94870.09;;;4.55;100.00
20077;BME280;12348;42.710;23.378;2023-04-05T09:42:48;94875.78;;;4.74;100.00
20077;BME280;12348;42.710;23.378;2023-04-05T09:45:16;94875.09;;;4.46;100.00
20077;BME280;12348;42.710;23.378;2023-04-05T09:48:14;94871.41;;;5.05;98.36
20077;BME280;12348;42.710;23.378;2023-04-05T09:50:41;94875.13;;;4.99;97.59
20077;BME280;12348;42.710;23.378;2023-04-05T09:53:09;94863.25;;;5.47;93.45
20077;BME280;12348;42.710;23.378;2023-04-05T09:55:40;94864.06;;;5.43;92.11
20077;BME280;12348;42.710;23.378;2023-04-05T09:58:12;94861.16;;;5.75;89.54
20077;BME280;12348;42.710;23.378;2023-04-05T10:00:47;94849.44;;;5.76;85.12
20077;BME280;12348;42.710;23.378;2023-04-05T10:03:17;94863.88;;;6.11;80.49
20077;BME280;12348;42.710;23.378;2023-04-05T10:05:44;94851.81;;;5.82;81.36
20077;BME280;12348;42.710;23.378;2023-04-05T10:08:12;94873.31;;;5.15;82.83
20077;BME280;12348;42.710;23.378;2023-04-05T10:10:45;94862.63;;;5.04;84.66
20077;BME280;12348;42.710;23.378;2023-04-05T10:13:14;94869.44;;;5.53;82.81
20077;BME280;12348;42.710;23.378;2023-04-05T10:15:45;94863.53;;;5.56;83.09
20077;BME280;12348;42.710;23.378;2023-04-05T10:18:17;94861.75;;;6.23;78.04
20077;BME280;12348;42.710;23.378;2023-04-05T10:20:49;94874.31;;;6.17;76.31
20077;BME280;12348;42.710;23.378;2023-04-05T10:23:21;94869.59;;;5.26;78.71
20077;BME280;12348;42.710;23.378;2023-04-05T10:25:57;94869.72;;;5.77;76.86
20077;BME280;12348;42.710;23.378;2023-04-05T10:28:30;94858.75;;;6.65;74.48
20077;BME280;12348;42.710;23.378;2023-04-05T10:31:01;94861.41;;;7.35;72.98
20077;BME280;12348;42.710;23.378;2023-04-05T10:33:29;94864.50;;;8.41;67.05
20077;BME280;12348;42.710;23.378;2023-04-05T10:36:08;94849.09;;;9.24;62.59
20077;BME280;12348;42.710;23.378;2023-04-05T10:38:46;94861.44;;;9.68;60.33
20077;BME280;12348;42.710;23.378;2023-04-05T10:41:17;94864.03;;;9.73;60.45
20077;BME280;12348;42.710;23.378;2023-04-05T10:43:45;94858.78;;;9.44;60.22
20077;BME280;12348;42.710;23.378;2023-04-05T10:46:18;94818.19;;;8.55;60.39
20077;BME280;12348;42.710;23.378;2023-04-05T10:48:49;94855.72;;;8.60;62.70
20077;BME280;12348;42.710;23.378;2023-04-05T10:51:23;94871.41;;;7.69;66.33
20077;BME280;12348;42.710;23.378;2023-04-05T10:53:50;94864.78;;;7.07;67.02
20077;BME280;12348;42.710;23.378;2023-04-05T10:56:19;94877.94;;;7.52;67.36
20077;BME280;12348;42.710;23.378;2023-04-05T10:58:49;94872.50;;;7.68;65.19
20077;BME280;12348;42.710;23.378;2023-04-05T11:01:18;94871.81;;;6.87;67.14
20077;BME280;12348;42.710;23.378;2023-04-05T11:03:47;94874.25;;;6.68;69.71
20077;BME280;12348;42.710;23.378;2023-04-05T11:06:19;94878.09;;;7.22;67.10
20077;BME280;12348;42.710;23.378;2023-04-05T11:08:48;94869.22;;;7.81;64.63
20077;BME280;12348;42.710;23.378;2023-04-05T11:11:17;94867.72;;;8.04;63.69
20077;BME280;12348;42.710;23.378;2023-04-05T11:13:49;94881.28;;;7.29;65.73
20077;BME280;12348;42.710;23.378;2023-04-05T11:16:16;94870.28;;;7.80;65.78
20077;BME280;12348;42.710;23.378;2023-04-05T11:18:44;94876.09;;;7.92;66.58
20077;BME280;12348;42.710;23.378;2023-04-05T11:21:19;94862.75;;;7.38;66.31
20077;BME280;12348;42.710;23.378;2023-04-05T11:24:07;94873.38;;;6.93;67.69
20077;BME280;12348;42.710;23.378;2023-04-05T11:26:55;94863.09;;;6.25;71.50
20077;BME280;12348;42.710;23.378;2023-04-05T11:29:48;94879.91;;;6.16;73.38
20077;BME280;12348;42.710;23.378;2023-04-05T11:32:15;94865.75;;;6.25;71.84
20077;BME280;12348;42.710;23.378;2023-04-05T11:34:43;94878.31;;;6.25;70.75
20077;BME280;12348;42.710;23.378;2023-04-05T11:37:10;94877.78;;;5.97;70.08
20077;BME280;12348;42.710;23.378;2023-04-05T11:39:37;94879.38;;;6.08;70.70
20077;BME280;12348;42.710;23.378;2023-04-05T11:42:09;94880.41;;;5.77;72.46
20077;BME280;12348;42.710;23.378;2023-04-05T11:44:42;94869.31;;;5.22;72.81
20077;BME280;12348;42.710;23.378;2023-04-05T11:47:10;94850.06;;;5.10;73.69
20077;BME280;12348;42.710;23.378;2023-04-05T11:49:38;94879.28;;;5.52;73.12
20077;BME280;12348;42.710;23.378;2023-04-05T11:52:10;94873.75;;;5.79;72.79
20077;BME280;12348;42.710;23.378;2023-04-05T11:54:37;94881.81;;;6.10;72.20
20077;BME280;12348;42.710;23.378;2023-04-05T11:57:11;94878.84;;;6.22;72.06
20077;BME280;12348;42.710;23.378;2023-04-05T11:59:38;94874.03;;;6.29;73.27
20077;BME280;12348;42.710;23.378;2023-04-05T12:02:05;94886.59;;;6.03;72.22
20077;BME280;12348;42.710;23.378;2023-04-05T12:04:34;94867.28;;;5.55;74.75
20077;BME280;12348;42.710;23.378;2023-04-05T12:07:23;94883.53;;;5.43;77.03
20077;BME280;12348;42.710;23.378;2023-04-05T12:10:02;94882.34;;;5.03;79.68
20077;BME280;12348;42.710;23.378;2023-04-05T12:12:33;94885.94;;;5.40;80.37
20077;BME280;12348;42.710;23.378;2023-04-05T12:15:02;94875.66;;;5.01;80.48
20077;BME280;12348;42.710;23.378;2023-04-05T12:17:45;94881.34;;;5.20;80.97
20077;BME280;12348;42.710;23.378;2023-04-05T12:20:18;94873.31;;;5.15;82.09
20077;BME280;12348;42.710;23.378;2023-04-05T12:22:46;94883.03;;;5.46;81.23
20077;BME280;12348;42.710;23.378;2023-04-05T12:25:14;94878.69;;;5.30;80.78
20077;BME280;12348;42.710;23.378;2023-04-05T12:27:41;94890.56;;;5.85;79.48
20077;BME280;12348;42.710;23.378;2023-04-05T12:30:10;94886.09;;;6.06;77.99
20077;BME280;12348;42.710;23.378;2023-04-05T12:32:41;94879.38;;;6.08;77.72
20077;BME280;12348;42.710;23.378;2023-04-05T12:35:10;94877.78;;;5.92;77.77
20077;BME280;12348;42.710;23.378;2023-04-05T12:37:39;94877.22;;;5.85;78.87
20077;BME280;12348;42.710;23.378;2023-04-05T12:40:07;94882.41;;;5.24;80.77
20077;BME280;12348;42.710;23.378;2023-04-05T12:42:36;94888.88;;;5.43;80.78
20077;BME280;12348;42.710;23.378;2023-04-05T12:45:03;94890.50;;;5.49;80.12
20077;BME280;12348;42.710;23.378;2023-04-05T12:47:32;94886.78;;;5.45;81.37
20077;BME280;12348;42.710;23.378;2023-04-05T12:50:09;94867.38;;;4.97;83.78
20077;BME280;12348;42.710;23.378;2023-04-05T12:52:36;94882.03;;;5.00;83.71
20077;BME280;12348;42.710;23.378;2023-04-05T12:55:13;94872.16;;;5.00;83.56
20077;BME280;12348;42.710;23.378;2023-04-05T12:57:41;94883.69;;;5.11;83.03
20077;BME280;12348;42.710;23.378;2023-04-05T13:00:08;94884.09;;;5.55;81.75
20077;BME280;12348;42.710;23.378;2023-04-05T13:02:36;94893.66;;;5.36;77.81
20077;BME280;12348;42.710;23.378;2023-04-05T13:05:03;94876.06;;;5.40;77.74